Time;durP1;ratioP1;P1;durP2;ratioP2;P2;SDS_P1;SDS_P2;PMS_P1;PMS_P2;Temp;Humidity;BMP_temperature;BMP_pressure;BME280_temperature;BME280_humidity;BME280_pressure;Samples;Min_cycle;Max_cycle;Signal;HPM_P1;HPM_P2
2022/03/15 00:02:25;;;;;;;0.83;0.77;;;;;;;17.13;49.07;97628.38;10463457;28;20681;-22
2022/03/15 00:07:26;;;;;;;1.48;0.82;;;;;;;17.12;49.13;97631.72;10460387;28;20286;-22
2022/03/15 00:12:28;;;;;;;0.70;0.50;;;;;;;17.10;48.92;97641.84;10468930;28;20037;-22
2022/03/15 00:17:32;;;;;;;1.33;0.75;;;;;;;17.06;48.80;97624.03;10463446;28;20095;-23
2022/03/15 00:22:36;;;;;;;1.23;0.80;;;;;;;17.09;48.67;97624.91;10449238;28;20065;-22
2022/03/15 00:27:37;;;;;;;1.00;0.60;;;;;;;17.08;48.61;97628.28;10452357;28;20044;-22
2022/03/15 00:32:38;;;;;;;0.93;0.80;;;;;;;17.09;48.62;97621.56;10465112;28;20108;-22
2022/03/15 00:37:38;;;;;;;0.65;0.65;;;;;;;17.06;48.75;97608.84;10471620;28;20037;-22
2022/03/15 00:42:40;;;;;;;1.52;0.70;;;;;;;17.08;48.85;97608.03;10467411;28;20292;-23
2022/03/15 00:47:44;;;;;;;1.23;0.68;;;;;;;17.07;51.21;97605.50;10466527;28;20025;-22
2022/03/15 00:52:48;;;;;;;2.40;0.82;;;;;;;17.24;52.15;97619.34;10438983;28;20558;-22
2022/03/15 00:57:48;;;;;;;1.45;0.73;;;;;;;17.28;52.19;97621.09;10471715;28;20524;-23
2022/03/15 01:02:49;;;;;;;1.58;0.73;;;;;;;17.19;49.67;97621.78;10447242;28;20064;-24
2022/03/15 01:07:49;;;;;;;1.77;0.90;;;;;;;17.13;49.02;97618.25;10467820;28;20029;-24
2022/03/15 01:12:50;;;;;;;1.98;0.88;;;;;;;17.09;49.10;97608.91;10444252;28;20131;-23
2022/03/15 01:17:51;;;;;;;1.58;0.80;;;;;;;17.11;49.08;97612.31;10444731;28;20036;-23
2022/03/15 01:22:52;;;;;;;0.88;0.60;;;;;;;17.09;48.64;97608.91;10447838;28;20040;-23
2022/03/15 01:27:55;;;;;;;1.08;0.90;;;;;;;17.08;48.88;97614.78;10468877;28;20032;-23
2022/03/15 01:32:55;;;;;;;1.60;0.95;;;;;;;17.07;48.66;97610.56;10469598;28;20114;-23
2022/03/15 01:37:56;;;;;;;0.60;0.60;;;;;;;17.09;49.01;97613.97;10465516;28;20408;-22
2022/03/15 01:42:57;;;;;;;1.02;0.60;;;;;;;17.07;48.70;97608.03;10445318;28;20324;-23
2022/03/15 01:47:57;;;;;;;1.88;0.70;;;;;;;17.06;48.63;97603.81;10453118;28;20422;-22
2022/03/15 01:52:59;;;;;;;0.82;0.40;;;;;;;17.08;49.00;97613.09;10439771;28;20052;-24
2022/03/15 01:57:59;;;;;;;1.70;0.90;;;;;;;17.13;51.88;97610.66;10468164;28;20492;-22
2022/03/15 02:03:03;;;;;;;1.33;0.63;;;;;;;17.22;51.69;97613.38;10446675;28;20472;-22
2022/03/15 02:08:12;;;;;;;3.33;1.00;;;;;;;17.26;51.72;97610.09;10464155;28;20541;-23
2022/03/15 02:13:12;;;;;;;1.00;0.50;;;;;;;17.14;49.14;97613.22;10469662;28;20060;-22
2022/03/15 02:18:13;;;;;;;0.57;0.43;;;;;;;17.09;48.99;97606.38;10470924;28;20453;-24
2022/03/15 02:23:14;;;;;;;0.87;0.73;;;;;;;17.07;49.05;97606.34;10467502;28;20496;-22
2022/03/15 02:28:14;;;;;;;0.88;0.68;;;;;;;17.07;49.19;97605.50;10460844;28;20279;-23
2022/03/15 02:33:15;;;;;;;0.47;0.47;;;;;;;17.05;48.96;97602.94;10464370;28;20028;-23
2022/03/15 02:38:15;;;;;;;0.90;0.50;;;;;;;17.05;48.95;97610.53;10463809;28;20824;-22
2022/03/15 02:43:16;;;;;;;1.10;0.80;;;;;;;16.98;49.20;97593.50;10458148;28;20074;-24
2022/03/15 02:48:16;;;;;;;1.45;0.57;;;;;;;17.06;48.87;97598.75;10465511;28;20032;-22
2022/03/15 02:53:17;;;;;;;1.05;0.63;;;;;;;17.04;48.83;97600.38;10457982;28;20025;-25
2022/03/15 02:58:20;;;;;;;2.15;0.60;;;;;;;17.03;48.91;97588.53;10451221;28;20472;-22
2022/03/15 03:03:22;;;;;;;0.82;0.47;;;;;;;17.04;49.21;97590.25;10461321;28;20452;-22
2022/03/15 03:08:25;;;;;;;2.08;0.85;;;;;;;17.14;51.90;97587.09;10465355;28;20033;-23
2022/03/15 03:13:26;;;;;;;2.45;0.90;;;;;;;17.23;51.84;97597.38;10439162;28;20024;-23
2022/03/15 03:18:32;;;;;;;0.75;0.65;;;;;;;17.22;51.62;97606.63;10469526;28;20028;-23
2022/03/15 03:23:39;;;;;;;0.70;0.70;;;;;;;17.11;49.65;97602.19;10461349;28;20415;-22
2022/03/15 03:28:40;;;;;;;;;;;;;;;17.07;49.02;97606.34;10459179;28;20116;-23
2022/03/15 03:33:40;;;;;;;1.08;0.60;;;;;;;17.02;49.16;97612.13;10469534;28;20018;-23
2022/03/15 03:38:41;;;;;;;0.95;0.50;;;;;;;17.04;49.15;97624.00;10465601;28;20036;-23
2022/03/15 03:43:41;;;;;;;0.75;0.55;;;;;;;17.02;49.02;97617.19;10458820;28;20288;-22
2022/03/15 03:48:42;;;;;;;0.50;0.50;;;;;;;17.01;48.90;97611.31;10464862;28;20333;-22
2022/03/15 03:53:42;;;;;;;2.08;0.50;;;;;;;17.03;49.37;97619.75;10457785;28;20048;-23
2022/03/15 03:58:45;;;;;;;1.50;0.45;;;;;;;17.01;48.97;97613.84;10454435;28;20059;-23
2022/03/15 04:03:45;;;;;;;0.93;0.57;;;;;;;17.02;49.15;97613.00;10444046;28;20444;-22
2022/03/15 04:08:46;;;;;;;1.43;1.23;;;;;;;17.02;48.65;97614.66;10453687;28;20039;-22
2022/03/15 04:13:50;;;;;;;1.55;0.60;;;;;;;17.02;48.99;97607.06;10464193;28;20275;-22
2022/03/15 04:18:51;;;;;;;1.08;0.60;;;;;;;17.16;51.89;97610.75;10464369;28;20028;-23
2022/03/15 04:23:54;;;;;;;2.33;0.70;;;;;;;17.15;52.04;97596.38;10463271;28;20040;-23
2022/03/15 04:28:55;;;;;;;1.00;0.68;;;;;;;17.19;51.22;97610.78;10456271;28;20481;-23
2022/03/15 04:33:55;;;;;;;0.70;0.50;;;;;;;17.09;49.60;97598.78;10464572;28;20180;-23
2022/03/15 04:38:56;;;;;;;0.67;0.40;;;;;;;17.07;48.85;97608.03;10457674;28;20033;-22
2022/03/15 04:43:57;;;;;;;0.65;0.60;;;;;;;17.05;49.06;97602.06;10457814;28;20564;-25
2022/03/15 04:48:57;;;;;;;0.38;0.38;;;;;;;17.04;49.13;97600.38;10458414;28;20091;-24
2022/03/15 04:53:58;;;;;;;1.25;0.70;;;;;;;17.05;49.78;97619.78;10456214;28;20029;-23
2022/03/15 04:58:58;;;;;;;0.50;0.50;;;;;;;17.04;49.76;97613.00;10462958;28;20025;-23
2022/03/15 05:03:59;;;;;;;0.87;0.50;;;;;;;17.02;49.17;97610.47;10462094;28;20226;-22
2022/03/15 05:08:59;;;;;;;1.42;0.50;;;;;;;17.02;49.24;97602.03;10453126;28;20278;-21
2022/03/15 05:13:59;;;;;;;0.77;0.50;;;;;;;17.04;48.74;97601.22;10430755;28;20037;-22
2022/03/15 05:19:00;;;;;;;1.08;0.60;;;;;;;17.09;49.21;97608.91;10469328;28;20306;-23
2022/03/15 05:24:00;;;;;;;0.82;0.55;;;;;;;17.09;50.47;97599.63;10449769;28;20032;-22
2022/03/15 05:29:01;;;;;;;1.10;0.60;;;;;;;17.19;52.37;97598.13;10449352;28;20029;-22
2022/03/15 05:34:01;;;;;;;0.80;0.60;;;;;;;17.22;51.98;97601.56;10471046;28;20043;-23
2022/03/15 05:39:02;;;;;;;1.77;0.55;;;;;;;17.23;51.46;97592.31;10465667;28;20297;-22
2022/03/15 05:44:03;;;;;;;1.33;0.60;;;;;;;17.16;49.60;97601.44;10462509;28;20061;-23
2022/03/15 05:49:03;;;;;;;0.60;0.45;;;;;;;17.15;48.99;97598.91;10467606;28;20025;-22
2022/03/15 05:54:04;;;;;;;2.57;0.57;;;;;;;17.17;49.08;97593.03;10466189;28;20095;-23
2022/03/15 05:59:06;;;;;;;7.78;1.00;;;;;;;17.18;51.25;97594.78;10461648;28;20048;-22
2022/03/15 06:04:07;;;;;;;4.88;1.30;;;;;;;16.97;49.21;97583.34;10467912;28;20037;-22
2022/03/15 06:09:08;;;;;;;4.22;0.90;;;;;;;17.09;49.10;97578.53;10463048;28;20039;-23
2022/03/15 06:14:08;;;;;;;6.20;1.25;;;;;;;17.08;49.17;97562.50;10465469;28;20044;-23
2022/03/15 06:19:09;;;;;;;3.53;0.90;;;;;;;17.08;49.18;97566.72;10472501;28;20090;-24
2022/03/15 06:24:10;;;;;;;2.57;0.87;;;;;;;17.08;49.20;97547.31;10449155;28;20283;-22
2022/03/15 06:29:11;;;;;;;4.38;1.40;;;;;;;17.10;50.30;97560.88;10460845;28;20295;-23
2022/03/15 06:34:12;;;;;;;14.40;1.73;;;;;;;16.77;49.61;97555.16;10459499;28;20064;-22
2022/03/15 06:39:13;;;;;;;8.50;1.70;;;;;;;17.07;53.00;97549.84;10449096;28;20113;-22
2022/03/15 06:44:15;;;;;;;9.18;2.25;;;;;;;17.20;52.56;97551.75;10441387;28;20370;-22
2022/03/15 06:49:16;;;;;;;7.05;0.88;;;;;;;17.10;49.79;97548.22;10459869;28;20033;-23
2022/03/15 06:54:17;;;;;;;4.25;0.80;;;;;;;17.06;49.41;97522.84;10464051;28;20086;-24
2022/03/15 06:59:18;;;;;;;2.20;0.68;;;;;;;17.04;49.09;97527.00;10442380;28;20025;-21
2022/03/15 07:04:18;;;;;;;2.63;0.85;;;;;;;17.02;49.33;97510.94;10462841;28;20033;-21
2022/03/15 07:09:19;;;;;;;2.30;0.70;;;;;;;17.00;49.18;97515.13;10458086;28;20033;-21
2022/03/15 07:14:19;;;;;;;1.67;0.77;;;;;;;16.94;48.84;97497.31;10434813;28;20516;-23
2022/03/15 07:19:20;;;;;;;2.78;1.00;;;;;;;16.97;49.47;97498.22;10432803;28;20032;-22
2022/03/15 07:24:21;;;;;;;4.72;1.35;;;;;;;16.99;48.86;97500.78;10469951;28;20048;-23
2022/03/15 07:29:21;;;;;;;2.03;0.70;;;;;;;16.99;49.04;97500.78;10448982;28;20040;-22
2022/03/15 07:34:22;;;;;;;3.47;1.02;;;;;;;16.92;49.10;97468.59;10444691;28;20515;-22
2022/03/15 07:39:23;;;;;;;1.77;0.90;;;;;;;16.96;49.28;97458.56;10460112;28;20567;-24
2022/03/15 07:44:25;;;;;;;7.60;2.65;;;;;;;17.09;53.09;97457.94;10449705;28;20043;-21
2022/03/15 07:49:25;;;;;;;7.50;2.40;;;;;;;17.23;53.06;97448.06;10459879;28;20037;-22
2022/03/15 07:54:25;;;;;;;8.85;3.03;;;;;;;17.22;52.35;97439.63;10449548;28;20284;-24
2022/03/15 07:59:26;;;;;;;2.83;1.80;;;;;;;17.10;49.81;97426.78;10438797;28;20052;-22
2022/03/15 08:04:26;;;;;;;4.70;1.45;;;;;;;17.05;49.82;97417.38;10448015;28;20045;-22
2022/03/15 08:09:27;;;;;;;4.33;1.33;;;;;;;17.01;49.17;97418.19;10450179;28;20041;-23
2022/03/15 08:14:27;;;;;;;3.78;1.10;;;;;;;16.98;49.23;97398.75;10458095;28;20291;-23
2022/03/15 08:19:28;;;;;;;2.25;1.15;;;;;;;16.99;49.47;97404.66;10446156;28;20037;-24
2022/03/15 08:24:29;;;;;;;1.50;0.90;;;;;;;16.97;49.01;97412.22;10450456;28;20094;-22
2022/03/15 08:29:31;;;;;;;3.35;1.58;;;;;;;16.96;49.37;97395.34;10424688;28;20422;-23
2022/03/15 08:34:31;;;;;;;4.90;1.63;;;;;;;16.96;49.28;97394.47;10441492;28;20112;-23
2022/03/15 08:39:32;;;;;;;3.47;1.05;;;;;;;16.95;49.27;97390.25;10443100;28;20485;-24
2022/03/15 08:44:32;;;;;;;2.35;1.30;;;;;;;16.96;49.29;97391.94;10455611;28;20087;-22
2022/03/15 08:49:32;;;;;;;2.57;0.90;;;;;;;16.95;49.28;97387.72;10421988;28;20104;-22
2022/03/15 08:54:34;;;;;;;3.55;2.40;;;;;;;17.11;52.76;97374.50;10470323;28;20287;-22
2022/03/15 08:59:35;;;;;;;7.80;2.80;;;;;;;17.22;53.09;97373.81;10471449;28;20033;-22
2022/03/15 09:04:35;;;;;;;4.80;2.42;;;;;;;17.18;51.64;97361.09;10475878;28;20033;-23
2022/03/15 09:09:36;;;;;;;5.37;1.60;;;;;;;17.09;50.05;97353.38;10475094;28;20032;-23
2022/03/15 09:14:36;;;;;;;3.47;2.38;;;;;;;17.02;49.60;97349.91;10441393;28;20319;-23
2022/03/15 09:19:36;;;;;;;4.00;2.17;;;;;;;16.99;49.46;97333.84;10473828;28;20492;-22
2022/03/15 09:24:37;;;;;;;5.28;1.13;;;;;;;16.97;49.13;97341.38;10472427;28;20123;-23
2022/03/15 09:29:38;;;;;;;2.25;1.50;;;;;;;16.98;49.44;97327.06;10472942;28;20480;-24
2022/03/15 09:34:39;;;;;;;2.47;1.17;;;;;;;16.97;49.32;97313.56;10466308;28;20025;-24
2022/03/15 09:39:41;;;;;;;8.07;2.47;;;;;;;16.98;49.34;97316.97;10471488;28;20032;-23
2022/03/15 09:44:43;;;;;;;3.88;2.05;;;;;;;16.97;49.62;97315.22;10460115;28;20037;-21
2022/03/15 09:49:46;;;;;;;3.55;1.35;;;;;;;16.96;49.27;97300.88;10439335;28;20511;-23
2022/03/15 09:54:49;;;;;;;5.00;2.03;;;;;;;16.97;49.10;97284.88;10466871;28;20057;-24
2022/03/15 09:59:51;;;;;;;4.45;1.90;;;;;;;16.97;49.40;97284.88;10465590;28;20134;-23
2022/03/15 10:04:51;;;;;;;4.75;2.45;;;;;;;17.12;52.82;97260.66;10466314;28;20048;-21
2022/03/15 10:09:52;;;;;;;5.68;2.83;;;;;;;17.19;52.80;97257.41;10467239;28;20051;-22
2022/03/15 10:14:52;;;;;;;4.00;1.90;;;;;;;17.17;51.19;97263.25;10458965;28;20391;-22
2022/03/15 10:19:54;;;;;;;4.30;2.60;;;;;;;17.09;50.16;97237.00;10472522;28;20154;-22
2022/03/15 10:24:56;;;;;;;3.13;2.13;;;;;;;17.06;49.59;97230.22;10469150;28;20414;-23
2022/03/15 10:29:57;;;;;;;3.13;1.63;;;;;;;17.02;49.53;97220.03;10464318;28;20040;-22
2022/03/15 10:35:08;;;;;;;3.80;2.50;;;;;;;17.03;49.58;97224.25;10466582;28;20040;-23
2022/03/15 10:40:09;;;;;;;4.97;2.58;;;;;;;17.01;48.97;97215.81;10468312;28;20477;-23
2022/03/15 10:45:28;;;;;;;3.75;2.30;;;;;;;17.01;49.78;97218.34;10471186;28;20161;-22
2022/03/15 10:50:32;;;;;;;5.15;1.90;;;;;;;17.01;49.50;97228.47;10465622;28;20029;-22
2022/03/15 10:55:34;;;;;;;2.90;1.92;;;;;;;16.90;49.30;97209.78;10456871;28;20130;-24
2022/03/15 11:00:38;;;;;;;2.80;2.10;;;;;;;16.97;49.49;97225.03;10438964;28;20033;-22
2022/03/15 11:05:40;;;;;;;4.00;2.10;;;;;;;16.98;49.17;97225.91;10471749;28;20036;-23
2022/03/15 11:10:45;;;;;;;5.47;2.42;;;;;;;16.96;49.43;97217.41;10469745;28;20077;-23
2022/03/15 11:15:55;;;;;;;2.67;2.45;;;;;;;17.16;52.87;97210.97;10458585;28;20056;-22
2022/03/15 11:20:58;;;;;;;3.00;2.10;;;;;;;17.22;53.13;97185.72;10437061;28;20033;-23
2022/03/15 11:26:04;;;;;;;1.40;1.10;;;;;;;17.12;49.75;97184.78;10467036;28;20140;-22
2022/03/15 11:31:05;;;;;;;1.00;0.70;;;;;;;17.08;49.41;97162.78;10466939;28;20029;-23
2022/03/15 11:36:05;;;;;;;3.42;1.15;;;;;;;17.09;49.49;97168.69;10464414;28;20356;-22
2022/03/15 11:41:06;;;;;;;0.60;0.60;;;;;;;17.07;49.38;97155.19;10466233;28;20028;-24
2022/03/15 11:46:14;;;;;;;4.90;1.23;;;;;;;17.07;49.88;97165.31;10467443;28;20068;-22
2022/03/15 11:51:42;;;;;;;3.47;1.27;;;;;;;17.06;49.31;97163.63;10462140;28;20385;-22
2022/03/15 11:56:45;;;;;;;1.90;0.85;;;;;;;17.09;49.14;97177.13;10458517;28;20044;-22
2022/03/15 12:01:51;;;;;;;2.08;1.75;;;;;;;17.11;49.53;97178.03;10461652;28;20485;-21
2022/03/15 12:06:56;;;;;;;10.45;1.27;;;;;;;17.12;50.43;97179.72;10470747;28;20025;-22
2022/03/15 12:12:16;;;;;;;1.95;0.93;;;;;;;17.04;49.24;97142.50;10463568;28;20523;-23
2022/03/15 12:17:18;;;;;;;2.25;1.30;;;;;;;17.06;49.02;97139.16;10435724;28;20029;-21
2022/03/15 12:22:34;;;;;;;4.63;2.42;;;;;;;17.13;52.79;97124.88;10457572;28;20036;-21
2022/03/15 12:27:46;;;;;;;11.13;3.08;;;;;;;17.23;53.56;97122.50;10450821;28;20025;-23
2022/03/15 12:32:50;;;;;;;6.55;2.17;;;;;;;17.21;51.80;97113.19;10477050;28;20111;-22
2022/03/15 12:38:03;;;;;;;2.35;1.10;;;;;;;17.12;49.44;97093.69;10471582;28;20033;-22
2022/03/15 12:43:06;;;;;;;1.58;0.82;;;;;;;17.10;49.59;97086.91;10448283;28;20087;-23
2022/03/15 12:48:07;;;;;;;2.20;0.80;;;;;;;17.09;49.51;97085.22;10444719;28;20037;-22
2022/03/15 12:53:12;;;;;;;3.90;1.65;;;;;;;17.10;49.59;97091.97;10467079;28;20558;-23
2022/03/15 12:58:14;;;;;;;1.23;0.80;;;;;;;17.07;49.35;97084.38;10472271;28;20481;-23
2022/03/15 13:03:18;;;;;;;1.52;1.00;;;;;;;17.08;49.04;97088.59;10464078;28;20033;-22
2022/03/15 13:08:19;;;;;;;1.40;0.70;;;;;;;17.05;48.99;97080.94;10427168;28;20409;-23
2022/03/15 13:13:24;;;;;;;1.67;0.80;;;;;;;17.05;48.96;97076.75;10459466;28;20146;-22
2022/03/15 13:18:25;;;;;;;1.83;0.82;;;;;;;17.05;49.49;97071.69;10473068;28;20181;-21
2022/03/15 13:23:49;;;;;;;1.83;1.02;;;;;;;17.03;49.00;97078.41;10464267;28;20044;-22
2022/03/15 13:28:51;;;;;;;1.77;1.02;;;;;;;17.04;49.39;97061.53;10465971;28;20055;-21
2022/03/15 13:33:54;;;;;;;13.07;3.88;;;;;;;17.16;53.58;97065.06;10462892;28;20377;-23
2022/03/15 13:39:09;;;;;;;17.23;5.00;;;;;;;17.26;54.00;97058.41;10458247;28;20028;-23
2022/03/15 13:44:19;;;;;;;9.57;4.35;;;;;;;17.21;51.78;97057.50;10425133;28;20040;-22
2022/03/15 13:49:22;;;;;;;4.20;1.40;;;;;;;17.13;49.57;97064.16;10443191;28;20040;-21
2022/03/15 13:54:23;;;;;;;20.08;6.00;;;;;;;17.08;52.36;97056.53;10453831;28;20056;-22
2022/03/15 13:59:27;;;;;;;4.18;1.92;;;;;;;16.87;50.62;97040.28;10452297;28;20080;-21
2022/03/15 14:04:29;;;;;;;4.57;1.60;;;;;;;16.98;49.97;97051.38;10454479;28;20060;-22
2022/03/15 14:09:32;;;;;;;2.47;1.52;;;;;;;16.98;49.84;97042.09;10459303;28;20037;-22
2022/03/15 14:14:48;;;;;;;5.25;1.60;;;;;;;17.00;49.90;97029.47;10453203;28;20044;-23
2022/03/15 14:19:52;;;;;;;2.97;1.67;;;;;;;16.99;49.80;97035.38;10471652;28;20032;-21
2022/03/15 14:24:57;;;;;;;2.92;1.50;;;;;;;17.01;49.65;97033.69;10470612;28;20033;-22
2022/03/15 14:30:03;;;;;;;4.07;1.52;;;;;;;16.92;49.40;97009.16;10464097;28;20166;-21
2022/03/15 14:35:07;;;;;;;3.78;1.52;;;;;;;16.94;49.88;97012.56;10465088;28;20036;-23
2022/03/15 14:40:12;;;;;;;9.95;4.28;;;;;;;17.00;49.67;97027.78;10452443;28;20048;-20
2022/03/15 14:45:13;;;;;;;15.68;7.85;;;;;;;17.13;54.27;97018.63;10473193;28;20585;-21
2022/03/15 14:50:18;;;;;;;16.60;8.30;;;;;;;17.23;54.31;97028.03;10462032;28;20029;-22
2022/03/15 14:55:21;;;;;;;15.10;7.72;;;;;;;17.11;50.75;97025.38;10463417;28;20029;-22
2022/03/15 15:00:21;;;;;;;8.23;4.65;;;;;;;17.01;50.14;97023.59;10450505;28;20401;-22
2022/03/15 15:05:25;;;;;;;4.97;1.90;;;;;;;17.04;49.84;97043.84;10465170;28;20044;-21
2022/03/15 15:10:26;;;;;;;3.95;1.98;;;;;;;17.02;49.72;97038.78;10468674;28;20036;-22
2022/03/15 15:15:26;;;;;;;4.33;2.20;;;;;;;17.01;49.50;97048.88;10458797;28;20085;-21
2022/03/15 15:20:30;;;;;;;7.45;4.93;;;;;;;17.02;49.73;97048.03;10460900;28;20028;-23
2022/03/15 15:25:31;;;;;;;10.85;6.20;;;;;;;17.02;50.97;97051.44;10460876;28;20543;-23
2022/03/15 15:30:33;;;;;;;41.40;5.97;;;;;;;16.98;51.24;97053.91;10462266;28;20021;-22
2022/03/15 15:35:36;;;;;;;28.10;4.03;;;;;;;17.00;50.20;97045.47;10451887;28;20378;-22
2022/03/15 15:40:40;;;;;;;15.43;3.28;;;;;;;17.00;50.18;97049.72;10448427;28;20078;-23
2022/03/15 15:45:41;;;;;;;13.85;6.03;;;;;;;16.98;50.36;97038.75;10448029;28;20489;-21
2022/03/15 15:50:44;;;;;;;18.80;9.55;;;;;;;17.10;53.64;97022.00;10454657;28;20038;-21
2022/03/15 15:55:49;;;;;;;21.45;10.05;;;;;;;17.24;54.99;97032.25;10456005;28;20049;-22
2022/03/15 16:00:50;;;;;;;15.15;8.60;;;;;;;17.28;54.60;97026.38;10457384;28;20409;-23
2022/03/15 16:05:51;;;;;;;17.10;8.20;;;;;;;17.18;53.63;97028.00;10452049;28;20043;-24
2022/03/15 16:10:52;;;;;;;13.80;4.43;;;;;;;17.06;49.90;97037.97;10464890;28;20278;-24
2022/03/15 16:15:52;;;;;;;7.90;2.60;;;;;;;16.99;49.89;97036.19;10454952;28;20050;-23
2022/03/15 16:20:55;;;;;;;4.95;2.60;;;;;;;17.02;49.98;97040.44;10451744;28;20786;-24
2022/03/15 16:25:55;;;;;;;5.63;2.83;;;;;;;17.06;50.26;97044.72;10458353;28;20567;-25
2022/03/15 16:30:55;;;;;;;5.80;2.33;;;;;;;17.08;49.82;97053.19;10459648;28;20097;-24
2022/03/15 16:35:56;;;;;;;7.30;3.35;;;;;;;17.11;49.90;97046.47;10452573;28;20040;-24
2022/03/15 16:40:57;;;;;;;5.00;2.50;;;;;;;17.10;50.05;97046.44;10461985;28;20040;-24
2022/03/15 16:45:57;;;;;;;5.40;3.38;;;;;;;17.08;50.03;97046.41;10452951;28;20119;-24
2022/03/15 16:50:57;;;;;;;7.37;3.37;;;;;;;17.11;49.81;97053.19;10458783;28;20462;-24
2022/03/15 16:56:01;;;;;;;6.35;3.20;;;;;;;17.09;50.03;97052.34;10459071;28;20293;-23
2022/03/15 17:01:02;;;;;;;13.80;6.10;;;;;;;17.08;52.00;97060.75;10454818;28;20029;-24
2022/03/15 17:06:02;;;;;;;14.23;7.63;;;;;;;17.19;53.91;97057.53;10456097;28;20040;-24
2022/03/15 17:11:03;;;;;;;15.10;6.00;;;;;;;17.25;52.96;97070.22;10449070;28;20284;-24
2022/03/15 17:16:04;;;;;;;11.15;5.88;;;;;;;17.16;49.53;97065.06;10462363;28;20036;-24
2022/03/15 17:21:15;;;;;;;9.90;5.63;;;;;;;17.15;52.08;97067.59;10460683;28;20041;-23
2022/03/15 17:26:19;;;;;;;15.35;5.88;;;;;;;17.15;51.04;97067.59;10467814;28;20072;-22
2022/03/15 17:31:21;;;;;;;7.07;4.18;;;;;;;17.12;49.96;97065.88;10464274;28;20033;-22
2022/03/15 17:36:21;;;;;;;9.93;4.82;;;;;;;17.15;50.06;97077.72;10462216;28;20037;-23
2022/03/15 17:41:22;;;;;;;5.27;3.00;;;;;;;17.13;49.63;97084.41;10469997;28;20040;-23
2022/03/15 17:46:27;;;;;;;5.32;3.50;;;;;;;17.12;50.50;97096.22;10450793;28;20033;-23
2022/03/15 17:51:28;;;;;;;18.13;3.90;;;;;;;17.07;51.02;97097.84;10438918;28;20040;-23
2022/03/15 17:56:33;;;;;;;17.97;4.07;;;;;;;17.06;51.01;97102.91;10448803;28;20523;-23
2022/03/15 18:01:37;;;;;;;7.47;2.88;;;;;;;17.06;51.19;97107.97;10434234;28;20711;-24
2022/03/15 18:06:40;;;;;;;8.95;3.03;;;;;;;17.05;51.11;97107.09;10452324;28;20041;-22
2022/03/15 18:11:43;;;;;;;13.45;5.68;;;;;;;17.23;54.58;97116.59;10469121;28;20094;-23
2022/03/15 18:16:44;;;;;;;13.75;4.35;;;;;;;17.25;53.46;97112.41;10470633;28;20057;-24
2022/03/15 18:21:49;;;;;;;7.13;3.03;;;;;;;17.29;53.16;97116.63;10435702;28;20037;-23
2022/03/15 18:26:50;;;;;;;11.35;3.20;;;;;;;17.29;52.26;97121.69;10449554;28;20096;-22
2022/03/15 18:31:51;;;;;;;6.20;3.05;;;;;;;17.38;52.29;97117.63;10444582;28;20150;-23
2022/03/15 18:36:51;;;;;;;6.38;3.85;;;;;;;17.49;52.06;97125.34;10438163;28;20507;-24
2022/03/15 18:41:52;;;;;;;12.57;4.03;;;;;;;17.61;54.92;97130.50;10443972;28;20443;-23
2022/03/15 18:46:53;;;;;;;10.88;3.63;;;;;;;17.69;52.56;97134.84;10450090;28;20059;-22
2022/03/15 18:51:53;;;;;;;12.03;4.87;;;;;;;17.79;51.86;97120.56;10449821;28;20119;-23
2022/03/15 18:56:54;;;;;;;6.10;4.68;;;;;;;17.82;51.47;97130.72;10448048;28;20036;-23
2022/03/15 19:01:59;;;;;;;5.10;3.10;;;;;;;17.89;51.19;97132.47;10445508;28;20040;-23
2022/03/15 19:07:04;;;;;;;7.80;3.75;;;;;;;17.77;51.43;97135.75;10437945;28;20041;-23
2022/03/15 19:12:05;;;;;;;10.05;4.22;;;;;;;17.88;51.00;97140.91;10447160;28;20071;-23
2022/03/15 19:17:06;;;;;;;10.82;3.95;;;;;;;17.86;50.91;97145.09;10443832;28;20047;-23
2022/03/15 19:22:09;;;;;;;7.03;3.57;;;;;;;17.89;50.93;97160.31;10444242;28;20450;-23
2022/03/15 19:27:09;;;;;;;12.30;3.88;;;;;;;17.94;50.61;97151.09;10453385;28;20481;-23
2022/03/15 19:32:10;;;;;;;8.30;4.40;;;;;;;17.96;50.17;97154.47;10446695;28;20051;-23
2022/03/15 19:37:13;;;;;;;8.13;3.50;;;;;;;17.94;50.26;97161.22;10447679;28;20512;-23
2022/03/15 19:42:14;;;;;;;7.85;3.50;;;;;;;18.00;50.29;97172.25;10447261;28;20040;-23
2022/03/15 19:47:14;;;;;;;6.13;3.53;;;;;;;17.77;50.61;97157.69;10445212;28;20095;-23
2022/03/15 19:52:16;;;;;;;6.10;3.20;;;;;;;17.74;50.55;97177.94;10447836;28;20519;-23
2022/03/15 19:57:18;;;;;;;6.47;3.65;;;;;;;17.67;50.40;97176.16;10455768;28;20534;-23
2022/03/15 20:02:19;;;;;;;4.68;3.15;;;;;;;17.62;50.59;97170.19;10451691;28;20036;-23
2022/03/15 20:07:33;;;;;;;6.93;3.25;;;;;;;17.58;50.57;97171.00;10457986;28;20033;-23
2022/03/15 20:12:38;;;;;;;4.88;3.10;;;;;;;17.57;50.31;97174.38;10453610;28;20041;-24
2022/03/15 20:17:47;;;;;;;4.40;3.10;;;;;;;17.58;50.68;97183.66;10443659;28;20107;-23
2022/03/15 20:22:57;;;;;;;7.82;3.20;;;;;;;17.52;50.98;97181.06;10445181;28;20032;-22
2022/03/15 20:27:57;;;;;;;4.80;2.97;;;;;;;17.47;50.76;97177.63;10446745;28;20031;-23
2022/03/15 20:32:59;;;;;;;5.80;3.65;;;;;;;17.46;51.58;97175.91;10459010;28;20028;-24
2022/03/15 20:38:00;;;;;;;8.38;3.72;;;;;;;17.51;51.61;97182.72;10449549;28;20068;-23
2022/03/15 20:48:20;;;;;;;6.53;3.72;;;;;;;17.44;50.97;97183.50;10444671;28;20037;-23
2022/03/15 20:53:23;;;;;;;4.10;3.05;;;;;;;17.42;50.60;97181.78;10449294;28;20024;-24
2022/03/15 20:58:25;;;;;;;5.80;2.78;;;;;;;17.43;51.26;97186.03;10463759;28;20562;-23
2022/03/15 21:03:30;;;;;;;7.95;3.90;;;;;;;17.39;51.10;97186.81;10455748;28;20501;-23
2022/03/15 21:08:36;;;;;;;4.88;3.28;;;;;;;17.37;51.08;97188.47;10462696;28;20021;-24
2022/03/15 21:13:38;;;;;;;;;;;;;;;17.34;51.30;97185.88;10441203;28;20033;-24
2022/03/15 21:18:39;;;;;;;6.45;3.47;;;;;;;17.36;51.24;97190.16;10473114;28;20445;-24
2022/03/15 21:23:44;;;;;;;6.55;3.47;;;;;;;17.40;51.52;97193.59;10475356;28;20059;-23
2022/03/15 21:28:44;;;;;;;8.23;3.65;;;;;;;17.39;50.72;97196.94;10452945;28;20021;-23
2022/03/15 21:33:45;;;;;;;6.03;3.80;;;;;;;17.36;50.81;97194.38;10457520;28;20029;-24
2022/03/15 21:38:46;;;;;;;6.47;3.40;;;;;;;17.35;50.64;97202.75;10462010;28;20025;-24
2022/03/15 21:43:47;;;;;;;6.93;3.72;;;;;;;17.33;50.61;97199.38;10467909;28;20037;-23
2022/03/15 21:48:54;;;;;;;4.70;3.40;;;;;;;17.31;50.66;97203.56;10473678;28;20431;-23
2022/03/15 21:53:59;;;;;;;5.82;3.03;;;;;;;17.25;50.82;97198.44;10468843;28;20036;-23
2022/03/15 21:59:00;;;;;;;4.57;3.33;;;;;;;17.29;50.56;97205.22;10474021;28;20114;-22
2022/03/15 22:04:00;;;;;;;4.72;2.72;;;;;;;17.27;50.58;97210.28;10471089;28;20082;-23
2022/03/15 22:09:01;;;;;;;5.50;2.90;;;;;;;17.28;50.64;97201.84;10468937;28;20032;-23
2022/03/15 22:14:02;;;;;;;5.17;3.00;;;;;;;17.25;50.42;97208.56;10468476;28;20040;-23
2022/03/15 22:19:02;;;;;;;6.03;3.65;;;;;;;17.26;50.64;97197.59;10476794;28;20037;-23
2022/03/15 22:24:06;;;;;;;7.70;3.63;;;;;;;17.32;53.57;97208.63;10474632;28;20129;-23
2022/03/15 22:29:06;;;;;;;6.50;3.42;;;;;;;17.35;53.74;97203.63;10458810;28;20036;-23
2022/03/15 23:16:20;;;;;;;7.95;2.70;;;;;;;17.18;50.54;97189.06;10464868;28;20067;-25
2022/03/15 23:31:58;;;;;;;3.42;2.63;;;;;;;17.29;53.79;97177.38;10453115;28;20033;-24
2022/03/15 23:36:58;;;;;;;4.73;3.03;;;;;;;17.28;53.46;97165.56;10453984;28;20045;-24
2022/03/15 23:41:59;;;;;;;4.07;2.40;;;;;;;17.24;50.11;97168.91;10466795;28;20209;-23
2022/03/15 23:46:59;;;;;;;3.83;2.50;;;;;;;17.21;50.54;97163.78;10465732;28;20310;-23
2022/03/15 23:52:02;;;;;;;6.88;2.80;;;;;;;17.19;50.35;97162.91;10461062;28;20298;-23
2022/03/15 23:57:03;;;;;;;4.07;2.58;;;;;;;17.19;50.36;97166.31;10466181;28;20118;-23
